Time;durP1;ratioP1;P1;durP2;ratioP2;P2;SDS_P1;SDS_P2;PMS_P1;PMS_P2;Temp;Humidity;BMP_temperature;BMP_pressure;BME280_temperature;BME280_humidity;BME280_pressure;Samples;Min_cycle;Max_cycle;Signal;HPM_P1;HPM_P2
2022/05/23 00:02:00;;;;;;;;;;;16.10;99.90;;;;;;5066063;28;19928;-72
2022/05/23 00:04:32;;;;;;;;;;;16.10;99.90;;;;;;5074810;28;19927;-71
2022/05/23 00:06:59;;;;;;;;;;;16.00;99.90;;;;;;5091607;28;19924;-72
2022/05/23 00:09:31;;;;;;;;;;;15.90;99.90;;;;;;5095477;28;19943;-71
2022/05/23 00:11:58;;;;;;;;;;;15.90;99.90;;;;;;5097550;28;19931;-71
2022/05/23 00:14:30;;;;;;;;;;;15.90;99.90;;;;;;5081196;28;19939;-76
2022/05/23 00:16:57;;;;;;;;;;;15.80;99.90;;;;;;5098784;28;19936;-72
2022/05/23 00:19:24;;;;;;;;;;;15.70;99.90;;;;;;5079113;28;19940;-72
2022/05/23 00:21:51;;;;;;;;;;;15.70;99.90;;;;;;5055963;28;19960;-72
2022/05/23 00:24:23;;;;;;;;;;;15.60;99.90;;;;;;5079647;28;19932;-72
2022/05/23 00:26:55;;;;;;;;;;;15.60;99.90;;;;;;5051477;28;19931;-72
2022/05/23 00:29:27;;;;;;;;;;;15.50;99.90;;;;;;5081049;28;19928;-72
2022/05/23 00:37:39;;;;;;;;;;;15.50;99.90;;;;;;5083538;28;19924;-72
2022/05/23 00:40:32;;;;;;;;;;;15.50;99.90;;;;;;5063369;28;19927;-72
2022/05/23 00:43:14;;;;;;;;;;;15.40;99.90;;;;;;5070374;28;20575;-72
2022/05/23 00:45:53;;;;;;;;;;;15.40;99.90;;;;;;5094577;28;20007;-72
2022/05/23 00:48:26;;;;;;;;;;;15.30;99.90;;;;;;5069159;28;19939;-72
2022/05/23 00:50:54;;;;;;;;;;;15.30;99.90;;;;;;5099276;28;19942;-72
2022/05/23 00:53:40;;;;;;;;;;;15.30;99.90;;;;;;5064681;28;20043;-72
2022/05/23 00:56:15;;;;;;;;;;;15.20;99.90;;;;;;5093051;28;20458;-72
2022/05/23 00:58:49;;;;;;;;;;;15.20;99.90;;;;;;5051985;28;19931;-72
2022/05/23 01:01:25;;;;;;;;;;;15.20;99.90;;;;;;5070586;28;19930;-71
2022/05/23 01:03:53;;;;;;;;;;;15.20;99.90;;;;;;5064400;28;20384;-72
2022/05/23 01:06:19;;;;;;;;;;;15.10;99.90;;;;;;5083496;28;19924;-72
2022/05/23 01:08:53;;;;;;;;;;;15.10;99.90;;;;;;5096002;28;20316;-72
2022/05/23 01:11:25;;;;;;;;;;;15.10;99.90;;;;;;5069274;28;20350;-72
2022/05/23 01:13:57;;;;;;;;;;;15.10;99.90;;;;;;5075108;28;19978;-72
2022/05/23 01:16:29;;;;;;;;;;;15.10;99.90;;;;;;5094131;28;20020;-72
2022/05/23 01:19:01;;;;;;;;;;;15.10;99.90;;;;;;5061088;28;20305;-71
2022/05/23 01:21:36;;;;;;;;;;;15.10;99.90;;;;;;5048591;28;19953;-72
2022/05/23 01:24:22;;;;;;;;;;;15.10;99.90;;;;;;5088774;28;20396;-72
2022/05/23 01:26:57;;;;;;;;;;;15.00;99.90;;;;;;5063443;28;19924;-72
2022/05/23 01:29:35;;;;;;;;;;;15.00;99.90;;;;;;5086324;28;19958;-72
2022/05/23 01:32:12;;;;;;;;;;;15.10;99.90;;;;;;5091643;28;20371;-72
2022/05/23 01:34:48;;;;;;;;;;;15.00;99.90;;;;;;5054670;28;20560;-72
2022/05/23 01:37:20;;;;;;;;;;;15.00;99.90;;;;;;5068121;28;20296;-72
2022/05/23 01:40:06;;;;;;;;;;;15.00;99.90;;;;;;5070765;28;19939;-72
2022/05/23 01:42:41;;;;;;;;;;;15.00;99.90;;;;;;5084359;28;20019;-72
2022/05/23 01:45:15;;;;;;;;;;;15.00;99.90;;;;;;5076653;28;19935;-71
2022/05/23 01:47:47;;;;;;;;;;;15.00;99.90;;;;;;5067345;28;19977;-72
2022/05/23 01:50:20;;;;;;;;;;;15.10;99.90;;;;;;5053287;28;19936;-72
2022/05/23 01:53:03;;;;;;;;;;;15.10;99.90;;;;;;5055113;28;20014;-72
2022/05/23 01:55:46;;;;;;;;;;;15.10;99.90;;;;;;5075103;28;19925;-72
2022/05/23 02:01:15;;;;;;;;;;;15.20;99.90;;;;;;5095050;28;19986;-72
2022/05/23 02:03:53;;;;;;;;;;;15.30;99.90;;;;;;5093751;28;19936;-72
2022/05/23 02:06:31;;;;;;;;;;;15.30;99.90;;;;;;5093701;28;19928;-72
2022/05/23 02:09:07;;;;;;;;;;;15.30;99.90;;;;;;5081677;28;20463;-72
2022/05/23 02:11:49;;;;;;;;;;;15.40;99.90;;;;;;5084853;28;19924;-72
2022/05/23 02:14:25;;;;;;;;;;;15.30;99.90;;;;;;5058384;28;19940;-72
2022/05/23 02:16:52;;;;;;;;;;;15.40;99.90;;;;;;5069594;28;19924;-72
2022/05/23 02:19:25;;;;;;;;;;;15.40;99.90;;;;;;5092678;28;19972;-72
2022/05/23 02:22:08;;;;;;;;;;;15.40;99.90;;;;;;5106379;28;19935;-72
2022/05/23 02:24:40;;;;;;;;;;;15.40;99.90;;;;;;5051734;28;20411;-72
2022/05/23 02:27:07;;;;;;;;;;;15.40;99.90;;;;;;5077628;28;19924;-72
2022/05/23 02:29:38;;;;;;;;;;;15.40;99.90;;;;;;5071518;28;19924;-72
2022/05/23 02:32:05;;;;;;;;;;;15.40;99.90;;;;;;5059601;28;19935;-72
2022/05/23 02:34:38;;;;;;;;;;;15.40;99.90;;;;;;5089137;28;19963;-72
2022/05/23 02:37:10;;;;;;;;;;;15.40;99.90;;;;;;5075325;28;19939;-72
2022/05/23 02:39:48;;;;;;;;;;;15.40;99.90;;;;;;5074318;28;20311;-72
2022/05/23 02:42:20;;;;;;;;;;;15.40;99.90;;;;;;5064142;28;19989;-72
2022/05/23 02:44:52;;;;;;;;;;;15.30;99.90;;;;;;5095019;28;19932;-71
2022/05/23 02:47:22;;;;;;;;;;;15.30;99.90;;;;;;5069741;28;20274;-72
2022/05/23 02:49:50;;;;;;;;;;;15.20;99.90;;;;;;5067956;28;19928;-72
2022/05/23 02:52:36;;;;;;;;;;;15.00;99.90;;;;;;5066986;28;19929;-72
2022/05/23 02:55:12;;;;;;;;;;;14.90;99.90;;;;;;5061997;28;20026;-72
2022/05/23 02:57:44;;;;;;;;;;;14.90;99.90;;;;;;5073991;28;19990;-72
2022/05/23 03:00:19;;;;;;;;;;;14.90;99.90;;;;;;5070159;28;19928;-72
2022/05/23 03:03:03;;;;;;;;;;;14.90;99.90;;;;;;5072435;28;20007;-72
2022/05/23 03:05:42;;;;;;;;;;;14.80;99.90;;;;;;5057839;28;20274;-72
2022/05/23 03:08:09;;;;;;;;;;;14.90;99.90;;;;;;5100091;28;20304;-72
2022/05/23 03:10:41;;;;;;;;;;;14.90;99.90;;;;;;5067016;28;19984;-72
2022/05/23 03:13:14;;;;;;;;;;;14.80;99.90;;;;;;5093471;28;19924;-72
2022/05/23 03:15:40;;;;;;;;;;;14.80;99.90;;;;;;5099934;28;20381;-72
2022/05/23 03:18:07;;;;;;;;;;;14.90;99.90;;;;;;5064839;28;19935;-72
2022/05/23 03:20:41;;;;;;;;;;;14.90;99.90;;;;;;5056035;28;19929;-72
2022/05/23 03:29:12;;;;;;;;;;;15.00;99.90;;;;;;4977091;28;20020;-72
2022/05/23 03:31:47;;;;;;;;;;;15.00;99.90;;;;;;5062445;28;20455;-72
2022/05/23 03:34:19;;;;;;;;;;;15.00;99.90;;;;;;5062421;28;20381;-72
2022/05/23 03:36:51;;;;;;;;;;;15.10;99.90;;;;;;5096069;28;19928;-72
2022/05/23 03:39:22;;;;;;;;;;;15.10;99.90;;;;;;5074427;28;20315;-72
2022/05/23 03:41:54;;;;;;;;;;;15.10;99.90;;;;;;5094046;28;19929;-72
2022/05/23 03:44:26;;;;;;;;;;;15.10;99.90;;;;;;5049711;28;20046;-72
2022/05/23 03:46:58;;;;;;;;;;;15.00;99.90;;;;;;5082568;28;19932;-72
2022/05/23 03:49:30;;;;;;;;;;;15.00;99.90;;;;;;5073464;28;19924;-72
2022/05/23 03:52:02;;;;;;;;;;;15.00;99.90;;;;;;5088960;28;19935;-72
2022/05/23 03:54:34;;;;;;;;;;;14.90;99.90;;;;;;5086762;28;20321;-72
2022/05/23 03:57:02;;;;;;;;;;;15.00;99.90;;;;;;5063219;28;19924;-72
2022/05/23 03:59:34;;;;;;;;;;;15.00;99.90;;;;;;5044417;28;19955;-72
2022/05/23 04:02:05;;;;;;;;;;;15.00;99.90;;;;;;5100775;28;20454;-72
2022/05/23 04:04:38;;;;;;;;;;;15.00;99.90;;;;;;5062584;28;19932;-72
2022/05/23 04:07:44;;;;;;;;;;;15.00;99.90;;;;;;5078340;28;19977;-73
2022/05/23 04:10:25;;;;;;;;;;;15.00;99.90;;;;;;5061907;28;20018;-72
2022/05/23 04:12:57;;;;;;;;;;;15.00;99.90;;;;;;5079972;28;20004;-72
2022/05/23 04:15:29;;;;;;;;;;;14.90;99.90;;;;;;5070352;28;20290;-72
2022/05/23 04:18:01;;;;;;;;;;;14.80;99.90;;;;;;5081626;28;19931;-72
2022/05/23 04:20:32;;;;;;;;;;;14.80;99.90;;;;;;5096061;28;20014;-72
2022/05/23 04:23:11;;;;;;;;;;;14.90;99.90;;;;;;5086884;28;19993;-72
2022/05/23 04:25:46;;;;;;;;;;;14.90;99.90;;;;;;5094420;27;19925;-71
2022/05/23 04:28:19;;;;;;;;;;;14.90;99.90;;;;;;5072834;28;19928;-72
2022/05/23 04:30:50;;;;;;;;;;;15.00;99.90;;;;;;5081478;28;19946;-71
2022/05/23 04:36:18;;;;;;;;;;;15.10;99.90;;;;;;5061648;28;19951;-72
2022/05/23 04:38:50;;;;;;;;;;;15.10;99.90;;;;;;5075647;28;20010;-72
2022/05/23 04:41:23;;;;;;;;;;;15.20;99.90;;;;;;5078099;28;19936;-73
2022/05/23 04:43:58;;;;;;;;;;;15.20;99.90;;;;;;5081671;28;20278;-72
2022/05/23 04:46:30;;;;;;;;;;;15.20;99.90;;;;;;5073242;28;19924;-72
2022/05/23 04:52:35;;;;;;;;;;;15.30;99.90;;;;;;5044312;28;19927;-72
2022/05/23 04:55:08;;;;;;;;;;;15.40;99.90;;;;;;5089948;28;20723;-72
2022/05/23 04:57:40;;;;;;;;;;;15.50;99.90;;;;;;5066781;28;20296;-72
2022/05/23 05:00:13;;;;;;;;;;;15.50;99.90;;;;;;5045300;28;19925;-72
2022/05/23 05:02:52;;;;;;;;;;;15.50;99.90;;;;;;5057148;28;19934;-72
2022/05/23 05:05:35;;;;;;;;;;;15.60;99.90;;;;;;5062387;28;19927;-72
2022/05/23 05:08:03;;;;;;;;;;;15.60;99.90;;;;;;5083281;28;19931;-72
2022/05/23 05:10:29;;;;;;;;;;;15.60;99.90;;;;;;5074174;28;19931;-72
2022/05/23 05:13:01;;;;;;;;;;;15.70;99.90;;;;;;5060106;28;20007;-72
2022/05/23 05:15:29;;;;;;;;;;;15.70;99.90;;;;;;5082894;28;19968;-72
2022/05/23 05:18:00;;;;;;;;;;;15.80;99.90;;;;;;5064310;28;19924;-72
2022/05/23 05:20:38;;;;;;;;;;;15.80;99.90;;;;;;5066747;28;20453;-72
2022/05/23 05:23:28;;;;;;;;;;;15.80;99.90;;;;;;5072979;28;20311;-72
2022/05/23 05:26:20;;;;;;;;;;;15.90;99.90;;;;;;5057050;28;19925;-72
2022/05/23 05:28:51;;;;;;;;;;;15.80;99.90;;;;;;5096811;28;19924;-72
2022/05/23 05:31:27;;;;;;;;;;;15.90;99.90;;;;;;5101416;28;19924;-72
2022/05/23 05:34:02;;;;;;;;;;;15.80;99.90;;;;;;5074534;28;20015;-72
2022/05/23 05:36:37;;;;;;;;;;;15.70;99.90;;;;;;5088367;28;19928;-72
2022/05/23 05:39:09;;;;;;;;;;;15.70;99.90;;;;;;5068947;28;19924;-72
2022/05/23 05:41:43;;;;;;;;;;;15.60;99.90;;;;;;5083189;28;19928;-72
2022/05/23 05:44:21;;;;;;;;;;;15.60;99.90;;;;;;5075744;28;19925;-72
2022/05/23 05:46:52;;;;;;;;;;;15.50;99.90;;;;;;5071189;28;19931;-73
2022/05/23 05:49:26;;;;;;;;;;;15.60;99.90;;;;;;5066482;28;19925;-72
2022/05/23 05:52:10;;;;;;;;;;;15.50;99.90;;;;;;5099962;28;19924;-73
2022/05/23 05:54:55;;;;;;;;;;;15.40;99.90;;;;;;5089561;28;19928;-72
2022/05/23 05:57:22;;;;;;;;;;;15.40;99.90;;;;;;5089027;28;20007;-72
2022/05/23 05:59:59;;;;;;;;;;;15.30;99.90;;;;;;5055091;28;19932;-72
2022/05/23 06:02:31;;;;;;;;;;;15.30;99.90;;;;;;5071639;28;19950;-72
2022/05/23 06:04:58;;;;;;;;;;;15.20;99.90;;;;;;5064350;28;19932;-72
2022/05/23 06:13:46;;;;;;;;;;;15.30;99.90;;;;;;5077364;28;19927;-72
2022/05/23 06:16:37;;;;;;;;;;;15.30;99.90;;;;;;5077095;28;20308;-72
2022/05/23 06:19:27;;;;;;;;;;;15.30;99.90;;;;;;5087460;28;20039;-72
2022/05/23 06:22:08;;;;;;;;;;;15.20;99.90;;;;;;5058270;28;19935;-71
2022/05/23 06:24:40;;;;;;;;;;;15.10;99.90;;;;;;5098630;28;19932;-71
2022/05/23 06:27:12;;;;;;;;;;;15.20;99.90;;;;;;5082317;28;19928;-72
2022/05/23 06:30:05;;;;;;;;;;;15.20;99.90;;;;;;5082859;28;19935;-72
2022/05/23 06:33:00;;;;;;;;;;;15.20;99.90;;;;;;5061255;28;20399;-72
2022/05/23 06:35:41;;;;;;;;;;;15.10;99.90;;;;;;5077697;28;20015;-71
2022/05/23 06:38:08;;;;;;;;;;;15.20;99.90;;;;;;5087538;28;19944;-72
2022/05/23 06:40:50;;;;;;;;;;;15.20;99.90;;;;;;5085047;28;19934;-72
2022/05/23 06:43:41;;;;;;;;;;;15.30;99.90;;;;;;5083489;28;19931;-72
2022/05/23 06:46:51;;;;;;;;;;;15.40;99.90;;;;;;5079710;28;19935;-72
2022/05/23 06:49:44;;;;;;;;;;;15.50;99.90;;;;;;5081213;28;20407;-72
2022/05/23 06:52:22;;;;;;;;;;;15.70;99.90;;;;;;5080585;28;19925;-71
2022/05/23 06:55:12;;;;;;;;;;;15.80;99.90;;;;;;5078579;28;20023;-71
2022/05/23 06:57:45;;;;;;;;;;;15.90;99.90;;;;;;5073430;28;20300;-72
2022/05/23 07:00:17;;;;;;;;;;;16.00;99.90;;;;;;5096800;28;19929;-71
2022/05/23 07:02:59;;;;;;;;;;;16.10;99.90;;;;;;5099948;27;19924;-72
2022/05/23 07:14:28;;;;;;;;;;;16.70;99.90;;;;;;5060522;28;20400;-71
2022/05/23 07:17:00;;;;;;;;;;;16.80;99.90;;;;;;5086639;28;20257;-71
2022/05/23 07:20:01;;;;;;;;;;;16.90;99.90;;;;;;5102764;27;19978;-71
2022/05/23 07:22:34;;;;;;;;;;;17.00;99.90;;;;;;5075744;28;19924;-71
2022/05/23 07:25:07;;;;;;;;;;;17.20;99.90;;;;;;5070561;28;20295;-71
2022/05/23 07:27:39;;;;;;;;;;;17.20;99.90;;;;;;5101853;27;19928;-71
2022/05/23 07:30:11;;;;;;;;;;;17.30;99.90;;;;;;5074662;28;20449;-71
2022/05/23 07:32:49;;;;;;;;;;;17.40;99.90;;;;;;5073024;28;19924;-71
2022/05/23 07:35:34;;;;;;;;;;;17.50;99.90;;;;;;5074913;28;20292;-70
2022/05/23 07:38:09;;;;;;;;;;;17.60;99.90;;;;;;5075593;28;19924;-71
2022/05/23 07:40:42;;;;;;;;;;;17.70;99.90;;;;;;5093297;28;19946;-71
2022/05/23 07:43:17;;;;;;;;;;;17.70;99.90;;;;;;5071424;28;19932;-71
2022/05/23 07:45:50;;;;;;;;;;;17.80;99.90;;;;;;5070586;28;19977;-71
2022/05/23 07:48:22;;;;;;;;;;;17.90;99.90;;;;;;5072031;28;19924;-71
2022/05/23 07:50:55;;;;;;;;;;;17.90;99.90;;;;;;5071599;28;20173;-71
2022/05/23 08:02:13;;;;;;;;;;;18.10;99.90;;;;;;5075097;28;20138;-71
2022/05/23 08:04:58;;;;;;;;;;;18.20;99.90;;;;;;5073618;28;19928;-72
2022/05/23 08:07:30;;;;;;;;;;;18.40;99.90;;;;;;5057249;28;19977;-71
2022/05/23 08:10:02;;;;;;;;;;;18.60;99.90;;;;;;5099896;27;20435;-71
2022/05/23 08:12:37;;;;;;;;;;;18.80;99.90;;;;;;5069246;28;19932;-71
2022/05/23 08:15:12;;;;;;;;;;;19.00;99.90;;;;;;5072468;28;19935;-72
2022/05/23 08:17:48;;;;;;;;;;;19.10;99.90;;;;;;5073446;28;20305;-72
2022/05/23 08:20:29;;;;;;;;;;;19.20;99.90;;;;;;5075868;28;20019;-72
2022/05/23 08:23:01;;;;;;;;;;;19.30;99.90;;;;;;5074387;28;19931;-72
2022/05/23 08:25:39;;;;;;;;;;;19.40;99.90;;;;;;5098801;28;19928;-72
2022/05/23 08:28:11;;;;;;;;;;;19.50;99.90;;;;;;5072562;28;20066;-72
2022/05/23 08:30:44;;;;;;;;;;;19.60;99.90;;;;;;5072693;28;20114;-72
2022/05/23 08:33:28;;;;;;;;;;;19.70;99.90;;;;;;5098100;27;19928;-72
2022/05/23 08:36:17;;;;;;;;;;;19.90;99.90;;;;;;5098893;27;19977;-72
2022/05/23 08:38:44;;;;;;;;;;;20.00;99.90;;;;;;5075463;28;20006;-72
2022/05/23 08:41:28;;;;;;;;;;;20.20;99.90;;;;;;5097980;27;20023;-72
2022/05/23 08:44:07;;;;;;;;;;;20.40;99.90;;;;;;5079681;28;19932;-72
2022/05/23 08:46:51;;;;;;;;;;;20.70;99.90;;;;;;5104826;27;19928;-72
2022/05/23 08:49:36;;;;;;;;;;;20.80;99.90;;;;;;5104266;27;19928;-72
2022/05/23 08:52:26;;;;;;;;;;;20.70;99.90;;;;;;5056401;28;19943;-72
2022/05/23 08:55:06;;;;;;;;;;;20.80;99.90;;;;;;5069116;28;19968;-72
2022/05/23 08:57:52;;;;;;;;;;;21.10;99.90;;;;;;5072806;28;19928;-72
2022/05/23 09:00:23;;;;;;;;;;;21.30;99.90;;;;;;5067590;28;19935;-72
2022/05/23 09:03:07;;;;;;;;;;;21.60;99.90;;;;;;5083451;28;19924;-72
2022/05/23 09:05:44;;;;;;;;;;;21.90;99.90;;;;;;5063009;28;19928;-72
2022/05/23 09:08:20;;;;;;;;;;;22.10;99.90;;;;;;5099844;27;19928;-72
2022/05/23 09:10:59;;;;;;;;;;;22.10;99.90;;;;;;5098774;28;19990;-72
2022/05/23 09:13:34;;;;;;;;;;;22.10;99.90;;;;;;5068240;28;20871;-72
2022/05/23 09:16:06;;;;;;;;;;;22.10;99.90;;;;;;5068016;28;20292;-72
2022/05/23 09:18:50;;;;;;;;;;;22.00;99.90;;;;;;5083369;28;19930;-72
2022/05/23 09:21:17;;;;;;;;;;;21.90;99.90;;;;;;5084883;28;19924;-72
2022/05/23 09:23:51;;;;;;;;;;;21.90;99.90;;;;;;5093811;28;19935;-72
2022/05/23 09:26:27;;;;;;;;;;;21.90;99.90;;;;;;5090884;28;19924;-73
2022/05/23 09:28:59;;;;;;;;;;;22.10;99.90;;;;;;5072210;28;20427;-72
2022/05/23 09:31:40;;;;;;;;;;;22.30;99.90;;;;;;5085811;28;19928;-71
2022/05/23 09:34:30;;;;;;;;;;;22.50;99.90;;;;;;5070654;28;20370;-72
2022/05/23 09:37:03;;;;;;;;;;;22.60;99.90;;;;;;5085961;28;19923;-73
2022/05/23 09:39:36;;;;;;;;;;;22.60;99.90;;;;;;5056231;28;19956;-73
2022/05/23 09:48:10;;;;;;;;;;;22.60;99.90;;;;;;5087472;28;19939;-72
2022/05/23 09:51:02;;;;;;;;;;;22.60;99.90;;;;;;5077872;28;19927;-72
2022/05/23 09:53:44;;;;;;;;;;;22.70;99.90;;;;;;5084971;28;20533;-72
2022/05/23 09:56:35;;;;;;;;;;;22.80;99.90;;;;;;5083151;28;20023;-73
2022/05/23 09:59:18;;;;;;;;;;;22.80;99.90;;;;;;5087777;28;19929;-72
2022/05/23 10:01:50;;;;;;;;;;;23.00;99.90;;;;;;5074112;28;20380;-73
2022/05/23 10:04:23;;;;;;;;;;;23.20;99.90;;;;;;5066407;28;19932;-72
2022/05/23 10:06:55;;;;;;;;;;;23.20;99.90;;;;;;5080826;28;20415;-72
2022/05/23 10:09:35;;;;;;;;;;;23.30;99.90;;;;;;5102061;28;19932;-72
2022/05/23 10:12:25;;;;;;;;;;;23.50;99.90;;;;;;5055031;28;20396;-72
2022/05/23 10:15:03;;;;;;;;;;;23.70;99.90;;;;;;5070026;28;20026;-73
2022/05/23 10:17:36;;;;;;;;;;;23.90;99.90;;;;;;5082324;28;20014;-72
2022/05/23 10:20:21;;;;;;;;;;;24.00;99.90;;;;;;5070025;28;19924;-73
2022/05/23 10:22:54;;;;;;;;;;;24.10;99.90;;;;;;5068711;28;20308;-72
2022/05/23 10:25:29;;;;;;;;;;;24.30;99.90;;;;;;5070911;28;19952;-72
2022/05/23 10:28:05;;;;;;;;;;;24.30;99.90;;;;;;5084989;28;19924;-73
2022/05/23 10:30:38;;;;;;;;;;;24.20;99.90;;;;;;5072542;28;19936;-72
2022/05/23 10:33:11;;;;;;;;;;;24.30;99.90;;;;;;5098360;27;20022;-72
2022/05/23 10:35:44;;;;;;;;;;;24.40;99.90;;;;;;5104881;27;19924;-72
2022/05/23 10:44:09;;;;;;;;;;;24.80;99.90;;;;;;5093102;28;19928;-72
2022/05/23 10:46:44;;;;;;;;;;;24.80;99.90;;;;;;5085268;28;19931;-72
2022/05/23 10:49:31;;;;;;;;;;;25.00;99.90;;;;;;5076427;28;20300;-72
2022/05/23 10:52:07;;;;;;;;;;;25.10;99.90;;;;;;5072533;28;19935;-72
2022/05/23 10:54:57;;;;;;;;;;;25.20;99.90;;;;;;5090054;28;19932;-72
2022/05/23 10:57:31;;;;;;;;;;;25.40;99.90;;;;;;5090567;28;20652;-72
2022/05/23 11:00:03;;;;;;;;;;;25.60;99.90;;;;;;5057919;28;19928;-72
2022/05/23 11:03:00;;;;;;;;;;;25.70;99.90;;;;;;5091910;28;19928;-72
2022/05/23 11:05:38;;;;;;;;;;;25.70;99.90;;;;;;5072743;28;19928;-72
2022/05/23 11:08:16;;;;;;;;;;;25.80;99.90;;;;;;5099750;27;19959;-73
2022/05/23 11:10:51;;;;;;;;;;;25.90;99.90;;;;;;5086854;28;19928;-72
2022/05/23 11:13:38;;;;;;;;;;;26.10;99.90;;;;;;5080011;28;19928;-72
2022/05/23 11:16:14;;;;;;;;;;;26.20;99.90;;;;;;5085648;28;19936;-72
2022/05/23 11:18:47;;;;;;;;;;;26.40;98.20;;;;;;5069487;28;19956;-73
2022/05/23 11:21:26;;;;;;;;;;;26.30;99.40;;;;;;5071393;28;20395;-72
2022/05/23 11:23:54;;;;;;;;;;;26.40;99.30;;;;;;5088028;28;20358;-72
2022/05/23 11:26:38;;;;;;;;;;;26.40;98.40;;;;;;5079396;28;19928;-72
2022/05/23 11:35:10;;;;;;;;;;;27.20;98.40;;;;;;5070800;28;19938;-71
2022/05/23 11:37:42;;;;;;;;;;;27.30;97.10;;;;;;5062868;28;19928;-72
2022/05/23 11:40:12;;;;;;;;;;;27.50;98.30;;;;;;5088492;28;20026;-72
2022/05/23 11:42:58;;;;;;;;;;;27.50;97.10;;;;;;5060103;28;19931;-72
2022/05/23 11:48:36;;;;;;;;;;;27.80;96.60;;;;;;5090377;28;19924;-72
2022/05/23 11:51:09;;;;;;;;;;;28.00;95.40;;;;;;5089159;28;19928;-72
2022/05/23 11:53:57;;;;;;;;;;;28.10;93.50;;;;;;5084882;28;19974;-73
2022/05/23 11:56:37;;;;;;;;;;;28.00;93.90;;;;;;5054040;28;19932;-72
2022/05/23 11:59:06;;;;;;;;;;;28.00;94.30;;;;;;5071548;28;19943;-72
2022/05/23 12:01:38;;;;;;;;;;;27.70;93.00;;;;;;5068696;28;19935;-74
2022/05/23 12:04:14;;;;;;;;;;;27.30;93.60;;;;;;5071984;28;19978;-72
2022/05/23 12:06:48;;;;;;;;;;;26.90;94.60;;;;;;5071419;28;19935;-71
2022/05/23 12:09:38;;;;;;;;;;;26.50;95.10;;;;;;5073044;28;19933;-72
2022/05/23 12:12:31;;;;;;;;;;;26.20;95.30;;;;;;5071993;28;19932;-72
2022/05/23 12:15:03;;;;;;;;;;;26.10;96.20;;;;;;5062746;28;19928;-72
2022/05/23 12:17:35;;;;;;;;;;;26.00;97.60;;;;;;5088729;28;19935;-71
2022/05/23 12:20:22;;;;;;;;;;;25.90;99.90;;;;;;5069647;28;19924;-72
2022/05/23 12:23:08;;;;;;;;;;;25.90;99.90;;;;;;5051046;28;19940;-72
2022/05/23 12:25:40;;;;;;;;;;;26.10;99.90;;;;;;5082916;28;19955;-72
2022/05/23 12:28:16;;;;;;;;;;;26.20;99.90;;;;;;5091492;28;20394;-71
2022/05/23 12:31:05;;;;;;;;;;;26.40;99.90;;;;;;5107559;27;19971;-73
2022/05/23 12:33:39;;;;;;;;;;;26.50;99.40;;;;;;5080154;28;19928;-72
2022/05/23 12:36:12;;;;;;;;;;;26.70;99.00;;;;;;5071543;28;19935;-72
2022/05/23 12:38:41;;;;;;;;;;;26.70;99.90;;;;;;5073436;28;19963;-72
2022/05/23 12:41:23;;;;;;;;;;;26.80;99.50;;;;;;5065377;28;19929;-72
2022/05/23 12:44:07;;;;;;;;;;;26.50;99.30;;;;;;5069913;28;20019;-72
2022/05/23 12:46:35;;;;;;;;;;;26.60;99.90;;;;;;5082388;28;19967;-72
2022/05/23 12:49:01;;;;;;;;;;;26.70;99.80;;;;;;5082407;28;20405;-72
2022/05/23 12:51:39;;;;;;;;;;;26.70;99.30;;;;;;5070372;28;19928;-72
2022/05/23 12:54:26;;;;;;;;;;;26.50;99.80;;;;;;5085244;28;20315;-72
2022/05/23 12:57:07;;;;;;;;;;;26.50;99.90;;;;;;5054344;28;19929;-72
2022/05/23 12:59:52;;;;;;;;;;;26.70;99.90;;;;;;5085645;28;19928;-72
2022/05/23 13:02:45;;;;;;;;;;;26.60;99.10;;;;;;5071312;28;20296;-72
2022/05/23 13:05:35;;;;;;;;;;;26.70;99.00;;;;;;5075315;28;19929;-72
2022/05/23 13:08:19;;;;;;;;;;;26.70;99.20;;;;;;5096042;28;19931;-73
2022/05/23 13:10:55;;;;;;;;;;;26.70;98.50;;;;;;5060746;28;20414;-72
2022/05/23 13:13:32;;;;;;;;;;;26.70;98.40;;;;;;5080249;28;20392;-72
2022/05/23 13:16:13;;;;;;;;;;;26.90;98.30;;;;;;5060712;28;19928;-72
2022/05/23 13:27:10;;;;;;;;;;;26.40;99.90;;;;;;5086734;28;19924;-71
2022/05/23 13:29:41;;;;;;;;;;;26.60;99.90;;;;;;5083604;28;19928;-71
2022/05/23 13:32:16;;;;;;;;;;;26.70;98.50;;;;;;5055504;28;19925;-72
2022/05/23 13:34:48;;;;;;;;;;;26.70;98.10;;;;;;5082753;28;19928;-72
2022/05/23 13:37:31;;;;;;;;;;;26.50;95.60;;;;;;5080849;28;19931;-72
2022/05/23 13:40:12;;;;;;;;;;;26.10;95.60;;;;;;5097814;28;19931;-71
2022/05/23 13:42:44;;;;;;;;;;;25.80;94.90;;;;;;5063259;28;19939;-72
2022/05/23 13:45:18;;;;;;;;;;;25.40;94.00;;;;;;5052491;28;19932;-71
2022/05/23 13:47:52;;;;;;;;;;;25.00;95.20;;;;;;5086559;28;19924;-72
2022/05/23 13:50:34;;;;;;;;;;;24.90;95.50;;;;;;5084990;28;19935;-72
2022/05/23 13:53:23;;;;;;;;;;;24.80;95.40;;;;;;5062448;28;19964;-72
2022/05/23 13:55:50;;;;;;;;;;;24.60;94.80;;;;;;5078836;28;19936;-72
2022/05/23 13:58:27;;;;;;;;;;;24.60;95.00;;;;;;5053710;28;19928;-71
2022/05/23 14:01:21;;;;;;;;;;;24.50;94.40;;;;;;5084833;28;19931;-71
2022/05/23 14:04:01;;;;;;;;;;;24.40;94.60;;;;;;5065126;28;19931;-71
2022/05/23 14:06:34;;;;;;;;;;;24.30;95.10;;;;;;5071117;28;19954;-72
2022/05/23 14:09:07;;;;;;;;;;;24.20;95.60;;;;;;5071720;28;19935;-72
2022/05/23 14:11:44;;;;;;;;;;;24.20;95.60;;;;;;5074150;28;20022;-72
2022/05/23 14:14:11;;;;;;;;;;;24.20;96.40;;;;;;5068251;28;19939;-72
2022/05/23 14:16:53;;;;;;;;;;;24.20;96.90;;;;;;5098648;28;19940;-72
2022/05/23 14:19:26;;;;;;;;;;;24.20;97.00;;;;;;5087675;28;19924;-72
2022/05/23 14:22:03;;;;;;;;;;;24.30;96.90;;;;;;5054317;28;19931;-72
2022/05/23 14:24:45;;;;;;;;;;;24.40;96.80;;;;;;5097074;28;19931;-72
2022/05/23 14:27:25;;;;;;;;;;;24.30;95.80;;;;;;5085670;28;19928;-71
2022/05/23 14:30:11;;;;;;;;;;;24.30;96.60;;;;;;5081738;28;19931;-71
2022/05/23 14:33:00;;;;;;;;;;;24.20;96.00;;;;;;5084953;28;19928;-72
2022/05/23 14:35:31;;;;;;;;;;;24.10;96.30;;;;;;5071924;28;19931;-72
2022/05/23 14:38:03;;;;;;;;;;;24.10;96.90;;;;;;5067299;28;19924;-72
2022/05/23 14:40:39;;;;;;;;;;;24.10;97.40;;;;;;5082800;28;20007;-72
2022/05/23 14:43:10;;;;;;;;;;;24.20;97.30;;;;;;5069725;28;19928;-71
2022/05/23 14:45:59;;;;;;;;;;;24.20;97.20;;;;;;5077763;28;19924;-72
2022/05/23 14:48:32;;;;;;;;;;;24.30;95.90;;;;;;5087835;28;19935;-71
2022/05/23 14:51:10;;;;;;;;;;;24.40;95.90;;;;;;5060232;28;19924;-72
2022/05/23 14:57:01;;;;;;;;;;;24.80;96.90;;;;;;5078939;28;19935;-72
2022/05/23 15:02:42;;;;;;;;;;;25.00;96.70;;;;;;5067958;28;19931;-71
2022/05/23 15:05:14;;;;;;;;;;;25.30;97.30;;;;;;5068958;28;19928;-72
2022/05/23 15:08:01;;;;;;;;;;;25.60;96.80;;;;;;5078936;28;20445;-71
2022/05/23 15:10:28;;;;;;;;;;;25.80;95.90;;;;;;5079284;28;19925;-72
2022/05/23 15:13:01;;;;;;;;;;;25.80;95.40;;;;;;5097093;28;19925;-72
2022/05/23 15:15:33;;;;;;;;;;;25.80;96.20;;;;;;5056870;28;19931;-72
2022/05/23 15:18:05;;;;;;;;;;;25.90;95.30;;;;;;5085041;28;20379;-70
2022/05/23 15:20:31;;;;;;;;;;;25.90;95.50;;;;;;5060153;28;19929;-71
2022/05/23 15:22:58;;;;;;;;;;;25.90;96.30;;;;;;5080850;28;19932;-72
2022/05/23 15:25:30;;;;;;;;;;;25.80;97.00;;;;;;5109051;27;19954;-72
2022/05/23 15:28:03;;;;;;;;;;;25.90;97.70;;;;;;5088148;28;19967;-71
2022/05/23 15:30:35;;;;;;;;;;;26.00;97.70;;;;;;5085205;28;19932;-72
2022/05/23 15:33:02;;;;;;;;;;;26.10;96.70;;;;;;5110562;27;19932;-72
2022/05/23 15:35:30;;;;;;;;;;;26.00;97.00;;;;;;5081393;28;19983;-71
2022/05/23 15:38:02;;;;;;;;;;;25.90;96.40;;;;;;5088558;28;20285;-72
2022/05/23 15:40:35;;;;;;;;;;;25.80;97.20;;;;;;5065339;28;19924;-72
2022/05/23 15:43:09;;;;;;;;;;;25.70;96.90;;;;;;5091037;28;19928;-72
2022/05/23 15:45:39;;;;;;;;;;;25.60;97.70;;;;;;5050974;28;19924;-72
2022/05/23 15:48:11;;;;;;;;;;;25.60;97.30;;;;;;5085751;28;20023;-72
2022/05/23 15:50:44;;;;;;;;;;;25.40;96.80;;;;;;5069562;28;19931;-72
2022/05/23 15:53:16;;;;;;;;;;;25.30;97.20;;;;;;5065291;28;19929;-72
2022/05/23 15:55:52;;;;;;;;;;;25.20;97.60;;;;;;5074922;28;20296;-72
2022/05/23 15:58:23;;;;;;;;;;;25.00;96.20;;;;;;5088689;28;19928;-72
2022/05/23 16:00:55;;;;;;;;;;;24.80;96.90;;;;;;5086770;28;19932;-72
2022/05/23 16:03:27;;;;;;;;;;;24.60;97.10;;;;;;5067874;28;19924;-72
2022/05/23 16:05:59;;;;;;;;;;;24.50;97.50;;;;;;5053112;28;19929;-71
2022/05/23 16:08:31;;;;;;;;;;;24.30;97.50;;;;;;5101534;28;19935;-72
2022/05/23 16:11:08;;;;;;;;;;;24.10;98.00;;;;;;5068299;28;20019;-71
2022/05/23 16:13:42;;;;;;;;;;;24.00;99.30;;;;;;5074382;28;19924;-73
2022/05/23 16:16:11;;;;;;;;;;;23.80;99.90;;;;;;5087859;28;19955;-73
2022/05/23 16:18:43;;;;;;;;;;;23.70;99.90;;;;;;5088490;28;19924;-72
2022/05/23 16:21:15;;;;;;;;;;;23.50;99.90;;;;;;5066602;28;20339;-71
2022/05/23 16:23:47;;;;;;;;;;;23.10;99.90;;;;;;5096635;28;19925;-73
2022/05/23 16:26:20;;;;;;;;;;;22.60;99.90;;;;;;5097447;28;19939;-72
2022/05/23 16:28:53;;;;;;;;;;;22.30;99.90;;;;;;5073030;28;19928;-73